sensor_id;sensor_type;location;lat;lon;timestamp;temperature;humidity
12893;DHT22;6514;48.606;9.222;2024-02-23T00:00:28;5.60;99.90
12893;DHT22;6514;48.606;9.222;2024-02-23T00:02:55;5.60;99.90
12893;DHT22;6514;48.606;9.222;2024-02-23T00:05:23;5.60;99.90
12893;DHT22;6514;48.606;9.222;2024-02-23T00:07:52;5.50;99.90
12893;DHT22;6514;48.606;9.222;2024-02-23T00:10:18;5.50;99.90
12893;DHT22;6514;48.606;9.222;2024-02-23T00:12:45;5.50;99.90
12893;DHT22;6514;48.606;9.222;2024-02-23T00:15:13;5.40;99.90
12893;DHT22;6514;48.606;9.222;2024-02-23T00:17:40;5.50;99.90
12893;DHT22;6514;48.606;9.222;2024-02-23T00:20:09;5.50;99.90
12893;DHT22;6514;48.606;9.222;2024-02-23T00:22:37;5.50;99.90
12893;DHT22;6514;48.606;9.222;2024-02-23T00:25:06;5.50;99.90
12893;DHT22;6514;48.606;9.222;2024-02-23T00:27:33;5.50;99.90
12893;DHT22;6514;48.606;9.222;2024-02-23T00:30:00;5.50;99.90
12893;DHT22;6514;48.606;9.222;2024-02-23T00:32:27;5.40;99.90
12893;DHT22;6514;48.606;9.222;2024-02-23T00:34:55;5.50;99.90
12893;DHT22;6514;48.606;9.222;2024-02-23T00:37:22;5.50;99.90
12893;DHT22;6514;48.606;9.222;2024-02-23T00:39:49;5.50;99.90
12893;DHT22;6514;48.606;9.222;2024-02-23T00:42:17;5.50;99.90
12893;DHT22;6514;48.606;9.222;2024-02-23T00:44:46;5.50;99.90
12893;DHT22;6514;48.606;9.222;2024-02-23T00:47:13;5.40;99.90
12893;DHT22;6514;48.606;9.222;2024-02-23T00:49:39;5.40;99.90
12893;DHT22;6514;48.606;9.222;2024-02-23T00:52:06;5.40;99.90
12893;DHT22;6514;48.606;9.222;2024-02-23T00:54:33;5.40;99.90
12893;DHT22;6514;48.606;9.222;2024-02-23T00:57:00;5.40;99.90
12893;DHT22;6514;48.606;9.222;2024-02-23T00:59:28;5.40;99.90
12893;DHT22;6514;48.606;9.222;2024-02-23T01:01:55;5.40;99.90
12893;DHT22;6514;48.606;9.222;2024-02-23T01:04:22;5.30;99.90
12893;DHT22;6514;48.606;9.222;2024-02-23T01:06:49;5.30;99.90
12893;DHT22;6514;48.606;9.222;2024-02-23T01:09:16;5.30;99.90
12893;DHT22;6514;48.606;9.222;2024-02-23T01:11:45;5.20;99.90
12893;DHT22;6514;48.606;9.222;2024-02-23T01:14:12;5.10;99.90
12893;DHT22;6514;48.606;9.222;2024-02-23T01:16:40;5.10;99.90
12893;DHT22;6514;48.606;9.222;2024-02-23T01:19:07;5.10;99.90
12893;DHT22;6514;48.606;9.222;2024-02-23T01:21:34;5.10;99.90
12893;DHT22;6514;48.606;9.222;2024-02-23T01:24:01;5.10;99.90
12893;DHT22;6514;48.606;9.222;2024-02-23T01:26:28;5.00;99.90
12893;DHT22;6514;48.606;9.222;2024-02-23T01:28:55;4.90;99.90
12893;DHT22;6514;48.606;9.222;2024-02-23T01:31:22;4.80;99.90
12893;DHT22;6514;48.606;9.222;2024-02-23T01:33:50;4.80;99.90
12893;DHT22;6514;48.606;9.222;2024-02-23T01:36:17;4.70;99.90
12893;DHT22;6514;48.606;9.222;2024-02-23T01:38:44;4.60;99.90
12893;DHT22;6514;48.606;9.222;2024-02-23T01:41:11;4.50;99.90
12893;DHT22;6514;48.606;9.222;2024-02-23T01:43:38;4.40;99.90
12893;DHT22;6514;48.606;9.222;2024-02-23T01:46:05;4.30;99.90
12893;DHT22;6514;48.606;9.222;2024-02-23T01:48:33;4.30;99.90
12893;DHT22;6514;48.606;9.222;2024-02-23T01:51:02;4.40;99.90
12893;DHT22;6514;48.606;9.222;2024-02-23T01:53:29;4.20;99.90
12893;DHT22;6514;48.606;9.222;2024-02-23T01:55:57;4.20;99.90
12893;DHT22;6514;48.606;9.222;2024-02-23T01:58:25;4.20;99.90
12893;DHT22;6514;48.606;9.222;2024-02-23T02:00:52;4.20;99.90
12893;DHT22;6514;48.606;9.222;2024-02-23T02:03:19;4.10;99.90
12893;DHT22;6514;48.606;9.222;2024-02-23T02:05:46;4.10;99.90
12893;DHT22;6514;48.606;9.222;2024-02-23T02:08:17;4.00;99.90
12893;DHT22;6514;48.606;9.222;2024-02-23T02:10:44;4.00;99.90
12893;DHT22;6514;48.606;9.222;2024-02-23T02:13:12;4.00;99.90
12893;DHT22;6514;48.606;9.222;2024-02-23T02:15:39;4.00;99.90
12893;DHT22;6514;48.606;9.222;2024-02-23T02:18:05;3.90;99.90
12893;DHT22;6514;48.606;9.222;2024-02-23T02:20:33;3.90;99.90
12893;DHT22;6514;48.606;9.222;2024-02-23T02:23:02;3.90;99.90
12893;DHT22;6514;48.606;9.222;2024-02-23T02:25:30;3.90;99.90
12893;DHT22;6514;48.606;9.222;2024-02-23T02:27:57;3.90;99.90
12893;DHT22;6514;48.606;9.222;2024-02-23T02:30:24;4.00;99.90
12893;DHT22;6514;48.606;9.222;2024-02-23T02:32:51;3.90;99.90
12893;DHT22;6514;48.606;9.222;2024-02-23T02:35:17;3.90;99.90
12893;DHT22;6514;48.606;9.222;2024-02-23T02:37:44;3.90;99.90
12893;DHT22;6514;48.606;9.222;2024-02-23T02:40:11;3.90;99.90
12893;DHT22;6514;48.606;9.222;2024-02-23T02:42:39;3.90;99.90
12893;DHT22;6514;48.606;9.222;2024-02-23T02:45:07;3.90;99.90
12893;DHT22;6514;48.606;9.222;2024-02-23T02:47:34;3.90;99.90
12893;DHT22;6514;48.606;9.222;2024-02-23T02:50:01;3.80;99.90
12893;DHT22;6514;48.606;9.222;2024-02-23T02:52:28;3.90;99.90
12893;DHT22;6514;48.606;9.222;2024-02-23T02:54:55;3.90;99.90
12893;DHT22;6514;48.606;9.222;2024-02-23T02:57:22;3.90;99.90
12893;DHT22;6514;48.606;9.222;2024-02-23T02:59:53;3.90;99.90
12893;DHT22;6514;48.606;9.222;2024-02-23T03:02:20;3.90;99.90
12893;DHT22;6514;48.606;9.222;2024-02-23T03:04:47;3.80;99.90
12893;DHT22;6514;48.606;9.222;2024-02-23T03:07:14;3.80;99.90
12893;DHT22;6514;48.606;9.222;2024-02-23T03:09:41;3.90;99.90
12893;DHT22;6514;48.606;9.222;2024-02-23T03:12:08;3.90;99.90
12893;DHT22;6514;48.606;9.222;2024-02-23T03:14:34;3.90;99.90
12893;DHT22;6514;48.606;9.222;2024-02-23T03:17:04;3.90;99.90
12893;DHT22;6514;48.606;9.222;2024-02-23T03:19:31;3.90;99.90
12893;DHT22;6514;48.606;9.222;2024-02-23T03:21:58;3.90;99.90
12893;DHT22;6514;48.606;9.222;2024-02-23T03:24:25;3.90;99.90
12893;DHT22;6514;48.606;9.222;2024-02-23T03:26:51;4.00;99.90
12893;DHT22;6514;48.606;9.222;2024-02-23T03:29:18;4.00;99.90
12893;DHT22;6514;48.606;9.222;2024-02-23T03:31:45;4.10;99.90
12893;DHT22;6514;48.606;9.222;2024-02-23T03:34:13;4.00;99.90
12893;DHT22;6514;48.606;9.222;2024-02-23T03:36:40;4.10;99.90
12893;DHT22;6514;48.606;9.222;2024-02-23T03:39:07;4.00;99.90
12893;DHT22;6514;48.606;9.222;2024-02-23T03:41:34;4.10;99.90
12893;DHT22;6514;48.606;9.222;2024-02-23T03:44:00;4.10;99.90
12893;DHT22;6514;48.606;9.222;2024-02-23T03:46:27;4.00;99.90
12893;DHT22;6514;48.606;9.222;2024-02-23T03:48:54;4.00;99.90
12893;DHT22;6514;48.606;9.222;2024-02-23T03:51:23;4.00;99.90
12893;DHT22;6514;48.606;9.222;2024-02-23T03:53:50;4.00;99.90
12893;DHT22;6514;48.606;9.222;2024-02-23T03:56:17;4.10;99.90
12893;DHT22;6514;48.606;9.222;2024-02-23T03:58:43;4.00;99.90
12893;DHT22;6514;48.606;9.222;2024-02-23T04:01:10;4.00;99.90
12893;DHT22;6514;48.606;9.222;2024-02-23T04:03:37;4.00;99.90
12893;DHT22;6514;48.606;9.222;2024-02-23T04:06:04;4.00;99.90
12893;DHT22;6514;48.606;9.222;2024-02-23T04:08:33;4.00;99.90
12893;DHT22;6514;48.606;9.222;2024-02-23T04:11:00;3.90;99.90
12893;DHT22;6514;48.606;9.222;2024-02-23T04:13:28;4.00;99.90
12893;DHT22;6514;48.606;9.222;2024-02-23T04:15:55;3.90;99.90
12893;DHT22;6514;48.606;9.222;2024-02-23T04:18:22;3.90;99.90
12893;DHT22;6514;48.606;9.222;2024-02-23T04:20:49;3.90;99.90
12893;DHT22;6514;48.606;9.222;2024-02-23T04:23:16;3.90;99.90
12893;DHT22;6514;48.606;9.222;2024-02-23T04:25:44;3.90;99.90
12893;DHT22;6514;48.606;9.222;2024-02-23T04:28:11;3.90;99.90
12893;DHT22;6514;48.606;9.222;2024-02-23T04:30:38;3.80;99.90
12893;DHT22;6514;48.606;9.222;2024-02-23T04:33:05;3.80;99.90
12893;DHT22;6514;48.606;9.222;2024-02-23T04:35:31;3.80;99.90
12893;DHT22;6514;48.606;9.222;2024-02-23T04:37:58;3.80;99.90
12893;DHT22;6514;48.606;9.222;2024-02-23T04:40:25;3.80;99.90
12893;DHT22;6514;48.606;9.222;2024-02-23T04:42:53;3.80;99.90
12893;DHT22;6514;48.606;9.222;2024-02-23T04:45:21;3.80;99.90
12893;DHT22;6514;48.606;9.222;2024-02-23T04:47:48;3.80;99.90
12893;DHT22;6514;48.606;9.222;2024-02-23T04:50:15;3.80;99.90
12893;DHT22;6514;48.606;9.222;2024-02-23T04:52:41;3.70;99.90
12893;DHT22;6514;48.606;9.222;2024-02-23T04:55:08;3.70;99.90
12893;DHT22;6514;48.606;9.222;2024-02-23T04:57:36;3.70;99.90
12893;DHT22;6514;48.606;9.222;2024-02-23T05:00:06;3.70;99.90
12893;DHT22;6514;48.606;9.222;2024-02-23T05:02:35;3.70;99.90
12893;DHT22;6514;48.606;9.222;2024-02-23T05:05:01;3.60;99.90
12893;DHT22;6514;48.606;9.222;2024-02-23T05:07:30;3.60;99.90
12893;DHT22;6514;48.606;9.222;2024-02-23T05:09:56;3.60;99.90
12893;DHT22;6514;48.606;9.222;2024-02-23T05:12:23;3.60;99.90
12893;DHT22;6514;48.606;9.222;2024-02-23T05:14:50;3.50;99.90
12893;DHT22;6514;48.606;9.222;2024-02-23T05:17:18;3.50;99.90
12893;DHT22;6514;48.606;9.222;2024-02-23T05:19:45;3.50;99.90
12893;DHT22;6514;48.606;9.222;2024-02-23T05:22:13;3.60;99.90
12893;DHT22;6514;48.606;9.222;2024-02-23T05:24:39;3.40;99.90
12893;DHT22;6514;48.606;9.222;2024-02-23T05:27:06;3.50;99.90
12893;DHT22;6514;48.606;9.222;2024-02-23T05:29:33;3.50;99.90
12893;DHT22;6514;48.606;9.222;2024-02-23T05:32:03;3.50;99.90
12893;DHT22;6514;48.606;9.222;2024-02-23T05:34:31;3.50;99.90
12893;DHT22;6514;48.606;9.222;2024-02-23T05:36:58;3.60;99.90
12893;DHT22;6514;48.606;9.222;2024-02-23T05:39:24;3.50;99.90
12893;DHT22;6514;48.606;9.222;2024-02-23T05:41:51;3.50;99.90
12893;DHT22;6514;48.606;9.222;2024-02-23T05:44:18;3.50;99.90
12893;DHT22;6514;48.606;9.222;2024-02-23T05:46:45;3.50;99.90
12893;DHT22;6514;48.606;9.222;2024-02-23T05:49:12;3.50;99.90
12893;DHT22;6514;48.606;9.222;2024-02-23T05:51:40;3.50;99.90
12893;DHT22;6514;48.606;9.222;2024-02-23T05:54:08;3.40;99.90
12893;DHT22;6514;48.606;9.222;2024-02-23T05:56:35;3.40;99.90
12893;DHT22;6514;48.606;9.222;2024-02-23T05:59:04;3.40;99.90
12893;DHT22;6514;48.606;9.222;2024-02-23T06:01:31;3.30;99.90
12893;DHT22;6514;48.606;9.222;2024-02-23T06:03:58;3.30;99.90
12893;DHT22;6514;48.606;9.222;2024-02-23T06:06:28;3.30;99.90
12893;DHT22;6514;48.606;9.222;2024-02-23T06:08:56;3.30;99.90
12893;DHT22;6514;48.606;9.222;2024-02-23T06:11:23;3.30;99.90
12893;DHT22;6514;48.606;9.222;2024-02-23T06:13:50;3.20;99.90
12893;DHT22;6514;48.606;9.222;2024-02-23T06:16:16;3.20;99.90
12893;DHT22;6514;48.606;9.222;2024-02-23T06:18:43;3.20;99.90
12893;DHT22;6514;48.606;9.222;2024-02-23T06:21:14;3.20;99.90
12893;DHT22;6514;48.606;9.222;2024-02-23T06:23:41;3.20;99.90
12893;DHT22;6514;48.606;9.222;2024-02-23T06:26:09;3.20;99.90
12893;DHT22;6514;48.606;9.222;2024-02-23T06:28:36;3.20;99.90
12893;DHT22;6514;48.606;9.222;2024-02-23T06:31:04;3.20;99.90
12893;DHT22;6514;48.606;9.222;2024-02-23T06:33:32;3.10;99.90
12893;DHT22;6514;48.606;9.222;2024-02-23T06:35:59;3.20;99.90
12893;DHT22;6514;48.606;9.222;2024-02-23T06:38:26;3.10;99.90
12893;DHT22;6514;48.606;9.222;2024-02-23T06:40:54;3.10;99.90
12893;DHT22;6514;48.606;9.222;2024-02-23T06:43:23;3.10;99.90
12893;DHT22;6514;48.606;9.222;2024-02-23T06:45:49;3.10;99.90
12893;DHT22;6514;48.606;9.222;2024-02-23T06:48:17;3.10;99.90
12893;DHT22;6514;48.606;9.222;2024-02-23T06:50:43;3.10;99.90
12893;DHT22;6514;48.606;9.222;2024-02-23T06:53:10;3.20;99.90
12893;DHT22;6514;48.606;9.222;2024-02-23T06:55:37;3.20;99.90
12893;DHT22;6514;48.606;9.222;2024-02-23T06:58:04;3.20;99.90
12893;DHT22;6514;48.606;9.222;2024-02-23T07:00:34;3.20;99.90
12893;DHT22;6514;48.606;9.222;2024-02-23T07:03:01;3.30;99.90
12893;DHT22;6514;48.606;9.222;2024-02-23T07:05:29;3.30;99.90
12893;DHT22;6514;48.606;9.222;2024-02-23T07:07:56;3.30;99.90
12893;DHT22;6514;48.606;9.222;2024-02-23T07:10:23;3.30;99.90
12893;DHT22;6514;48.606;9.222;2024-02-23T07:12:51;3.40;99.90
12893;DHT22;6514;48.606;9.222;2024-02-23T07:15:19;3.40;99.90
12893;DHT22;6514;48.606;9.222;2024-02-23T07:17:48;3.50;99.90
12893;DHT22;6514;48.606;9.222;2024-02-23T07:20:14;3.50;99.90
12893;DHT22;6514;48.606;9.222;2024-02-23T07:22:43;3.50;99.90
12893;DHT22;6514;48.606;9.222;2024-02-23T07:25:11;3.60;99.90
12893;DHT22;6514;48.606;9.222;2024-02-23T07:27:38;3.60;99.90
12893;DHT22;6514;48.606;9.222;2024-02-23T07:30:06;3.60;99.90
12893;DHT22;6514;48.606;9.222;2024-02-23T07:32:33;3.70;99.90
12893;DHT22;6514;48.606;9.222;2024-02-23T07:35:01;3.80;99.90
12893;DHT22;6514;48.606;9.222;2024-02-23T07:37:29;3.90;99.90
12893;DHT22;6514;48.606;9.222;2024-02-23T07:39:56;4.00;99.90
12893;DHT22;6514;48.606;9.222;2024-02-23T07:42:23;4.10;99.90
12893;DHT22;6514;48.606;9.222;2024-02-23T07:44:49;4.20;99.90
12893;DHT22;6514;48.606;9.222;2024-02-23T07:47:16;4.30;99.90
12893;DHT22;6514;48.606;9.222;2024-02-23T07:49:43;4.50;99.90
12893;DHT22;6514;48.606;9.222;2024-02-23T07:52:11;4.50;99.90
12893;DHT22;6514;48.606;9.222;2024-02-23T07:54:38;4.50;99.90
12893;DHT22;6514;48.606;9.222;2024-02-23T07:57:05;4.60;99.90
12893;DHT22;6514;48.606;9.222;2024-02-23T07:59:32;4.70;99.90
12893;DHT22;6514;48.606;9.222;2024-02-23T08:01:59;4.70;99.90
12893;DHT22;6514;48.606;9.222;2024-02-23T08:04:26;4.70;99.90
12893;DHT22;6514;48.606;9.222;2024-02-23T08:06:53;4.80;99.90
12893;DHT22;6514;48.606;9.222;2024-02-23T08:09:21;4.80;99.90
12893;DHT22;6514;48.606;9.222;2024-02-23T08:11:49;4.80;99.90
12893;DHT22;6514;48.606;9.222;2024-02-23T08:14:16;4.70;99.90
12893;DHT22;6514;48.606;9.222;2024-02-23T08:16:43;4.80;99.90
12893;DHT22;6514;48.606;9.222;2024-02-23T08:19:10;4.80;99.90
12893;DHT22;6514;48.606;9.222;2024-02-23T08:21:37;4.80;99.90
12893;DHT22;6514;48.606;9.222;2024-02-23T08:24:05;4.80;99.90
12893;DHT22;6514;48.606;9.222;2024-02-23T08:26:33;4.90;99.90
12893;DHT22;6514;48.606;9.222;2024-02-23T08:29:00;5.00;99.90
12893;DHT22;6514;48.606;9.222;2024-02-23T08:31:28;5.10;99.90
12893;DHT22;6514;48.606;9.222;2024-02-23T08:33:55;5.30;99.90
12893;DHT22;6514;48.606;9.222;2024-02-23T08:36:21;5.30;99.90
12893;DHT22;6514;48.606;9.222;2024-02-23T08:38:48;5.40;99.90
12893;DHT22;6514;48.606;9.222;2024-02-23T08:41:15;5.50;99.90
12893;DHT22;6514;48.606;9.222;2024-02-23T08:43:43;5.50;99.90
12893;DHT22;6514;48.606;9.222;2024-02-23T08:46:10;5.60;99.90
12893;DHT22;6514;48.606;9.222;2024-02-23T08:48:37;5.70;99.90
12893;DHT22;6514;48.606;9.222;2024-02-23T08:51:04;5.70;99.90
12893;DHT22;6514;48.606;9.222;2024-02-23T08:53:31;5.70;99.90
12893;DHT22;6514;48.606;9.222;2024-02-23T08:55:57;5.80;99.90
12893;DHT22;6514;48.606;9.222;2024-02-23T08:58:24;5.80;99.90
12893;DHT22;6514;48.606;9.222;2024-02-23T09:00:52;5.80;99.90
12893;DHT22;6514;48.606;9.222;2024-02-23T09:03:19;5.80;99.90
12893;DHT22;6514;48.606;9.222;2024-02-23T09:05:46;5.80;99.90
12893;DHT22;6514;48.606;9.222;2024-02-23T09:08:13;5.90;99.90
12893;DHT22;6514;48.606;9.222;2024-02-23T09:10:40;5.90;99.90
12893;DHT22;6514;48.606;9.222;2024-02-23T09:13:08;6.00;99.90
12893;DHT22;6514;48.606;9.222;2024-02-23T09:15:34;6.10;99.90
12893;DHT22;6514;48.606;9.222;2024-02-23T09:18:03;6.10;99.90
12893;DHT22;6514;48.606;9.222;2024-02-23T09:20:30;6.10;99.90
12893;DHT22;6514;48.606;9.222;2024-02-23T09:22:57;6.10;99.90
12893;DHT22;6514;48.606;9.222;2024-02-23T09:25:24;6.20;99.90
12893;DHT22;6514;48.606;9.222;2024-02-23T09:27:51;6.20;99.90
12893;DHT22;6514;48.606;9.222;2024-02-23T09:30:18;6.40;99.90
12893;DHT22;6514;48.606;9.222;2024-02-23T09:32:45;6.40;99.90
12893;DHT22;6514;48.606;9.222;2024-02-23T09:35:13;6.60;99.90
12893;DHT22;6514;48.606;9.222;2024-02-23T09:37:40;6.70;99.90
12893;DHT22;6514;48.606;9.222;2024-02-23T09:40:08;6.80;99.90
12893;DHT22;6514;48.606;9.222;2024-02-23T09:42:36;6.80;99.90
12893;DHT22;6514;48.606;9.222;2024-02-23T09:45:05;6.90;99.90
12893;DHT22;6514;48.606;9.222;2024-02-23T09:47:33;7.00;99.90
12893;DHT22;6514;48.606;9.222;2024-02-23T09:50:03;7.10;99.90
12893;DHT22;6514;48.606;9.222;2024-02-23T09:52:33;7.20;99.90
12893;DHT22;6514;48.606;9.222;2024-02-23T09:55:00;7.40;99.90
12893;DHT22;6514;48.606;9.222;2024-02-23T09:57:29;7.40;99.90
12893;DHT22;6514;48.606;9.222;2024-02-23T09:59:56;7.60;99.90
12893;DHT22;6514;48.606;9.222;2024-02-23T10:02:23;7.60;99.90
12893;DHT22;6514;48.606;9.222;2024-02-23T10:04:51;7.70;99.90
12893;DHT22;6514;48.606;9.222;2024-02-23T10:07:21;7.70;99.90
12893;DHT22;6514;48.606;9.222;2024-02-23T10:09:49;7.90;99.90
12893;DHT22;6514;48.606;9.222;2024-02-23T10:12:17;7.60;99.90
12893;DHT22;6514;48.606;9.222;2024-02-23T10:14:44;7.90;99.90
12893;DHT22;6514;48.606;9.222;2024-02-23T10:17:11;8.00;99.90
12893;DHT22;6514;48.606;9.222;2024-02-23T10:19:38;8.20;99.90
12893;DHT22;6514;48.606;9.222;2024-02-23T10:22:05;8.20;99.90
12893;DHT22;6514;48.606;9.222;2024-02-23T10:24:31;8.20;99.90
12893;DHT22;6514;48.606;9.222;2024-02-23T10:27:00;8.10;99.90
12893;DHT22;6514;48.606;9.222;2024-02-23T10:29:28;8.20;99.90
12893;DHT22;6514;48.606;9.222;2024-02-23T10:31:56;8.20;99.90
12893;DHT22;6514;48.606;9.222;2024-02-23T10:34:24;8.20;99.90
12893;DHT22;6514;48.606;9.222;2024-02-23T10:36:53;8.10;99.90
12893;DHT22;6514;48.606;9.222;2024-02-23T10:39:22;8.10;99.90
12893;DHT22;6514;48.606;9.222;2024-02-23T10:41:56;8.10;99.90
12893;DHT22;6514;48.606;9.222;2024-02-23T10:44:27;8.00;99.90
12893;DHT22;6514;48.606;9.222;2024-02-23T10:46:58;7.90;99.90
12893;DHT22;6514;48.606;9.222;2024-02-23T10:49:26;8.00;99.90
12893;DHT22;6514;48.606;9.222;2024-02-23T10:51:54;8.00;99.90
12893;DHT22;6514;48.606;9.222;2024-02-23T10:54:22;8.10;99.90
12893;DHT22;6514;48.606;9.222;2024-02-23T10:56:50;8.10;99.90
12893;DHT22;6514;48.606;9.222;2024-02-23T10:59:17;8.20;99.90
12893;DHT22;6514;48.606;9.222;2024-02-23T11:01:47;8.40;99.90
12893;DHT22;6514;48.606;9.222;2024-02-23T11:04:15;8.50;99.90
12893;DHT22;6514;48.606;9.222;2024-02-23T11:06:42;8.40;99.90
12893;DHT22;6514;48.606;9.222;2024-02-23T11:09:12;8.50;99.90
12893;DHT22;6514;48.606;9.222;2024-02-23T11:11:39;8.40;99.90
12893;DHT22;6514;48.606;9.222;2024-02-23T11:14:07;8.50;99.90
12893;DHT22;6514;48.606;9.222;2024-02-23T11:16:38;8.60;99.90
12893;DHT22;6514;48.606;9.222;2024-02-23T11:19:09;8.60;99.90
12893;DHT22;6514;48.606;9.222;2024-02-23T11:21:37;8.70;99.90
12893;DHT22;6514;48.606;9.222;2024-02-23T11:24:05;8.80;99.90
12893;DHT22;6514;48.606;9.222;2024-02-23T11:26:32;8.70;99.90
12893;DHT22;6514;48.606;9.222;2024-02-23T11:29:10;8.80;99.90
12893;DHT22;6514;48.606;9.222;2024-02-23T11:31:44;8.70;99.90
12893;DHT22;6514;48.606;9.222;2024-02-23T11:34:13;8.70;99.90
12893;DHT22;6514;48.606;9.222;2024-02-23T11:36:40;8.60;99.90
12893;DHT22;6514;48.606;9.222;2024-02-23T11:39:10;8.70;99.90
12893;DHT22;6514;48.606;9.222;2024-02-23T11:41:38;8.60;99.90
12893;DHT22;6514;48.606;9.222;2024-02-23T11:44:06;8.60;99.90
12893;DHT22;6514;48.606;9.222;2024-02-23T11:46:33;8.60;99.90
12893;DHT22;6514;48.606;9.222;2024-02-23T11:49:00;8.80;99.90
12893;DHT22;6514;48.606;9.222;2024-02-23T11:51:29;8.90;99.90
12893;DHT22;6514;48.606;9.222;2024-02-23T11:53:57;9.10;99.90
12893;DHT22;6514;48.606;9.222;2024-02-23T11:56:26;9.20;99.90
12893;DHT22;6514;48.606;9.222;2024-02-23T11:58:54;9.10;99.90
12893;DHT22;6514;48.606;9.222;2024-02-23T12:01:21;9.00;99.90
12893;DHT22;6514;48.606;9.222;2024-02-23T12:03:48;9.00;99.90
12893;DHT22;6514;48.606;9.222;2024-02-23T12:06:17;9.00;99.90
12893;DHT22;6514;48.606;9.222;2024-02-23T12:08:45;9.00;99.90
12893;DHT22;6514;48.606;9.222;2024-02-23T12:11:12;9.20;99.90
12893;DHT22;6514;48.606;9.222;2024-02-23T12:13:39;9.10;99.90
12893;DHT22;6514;48.606;9.222;2024-02-23T12:16:07;9.00;99.90
12893;DHT22;6514;48.606;9.222;2024-02-23T12:18:35;8.90;99.90
12893;DHT22;6514;48.606;9.222;2024-02-23T12:21:04;8.70;99.90
12893;DHT22;6514;48.606;9.222;2024-02-23T12:23:41;8.60;99.90
12893;DHT22;6514;48.606;9.222;2024-02-23T12:26:10;8.50;99.90
12893;DHT22;6514;48.606;9.222;2024-02-23T12:28:37;8.30;99.90
12893;DHT22;6514;48.606;9.222;2024-02-23T12:31:04;8.20;99.90
12893;DHT22;6514;48.606;9.222;2024-02-23T12:33:32;8.20;99.90
12893;DHT22;6514;48.606;9.222;2024-02-23T12:36:00;8.20;99.90
12893;DHT22;6514;48.606;9.222;2024-02-23T12:38:28;8.10;99.90
12893;DHT22;6514;48.606;9.222;2024-02-23T12:40:55;8.20;99.90
12893;DHT22;6514;48.606;9.222;2024-02-23T12:43:24;8.20;99.90
12893;DHT22;6514;48.606;9.222;2024-02-23T12:45:51;8.30;99.90
12893;DHT22;6514;48.606;9.222;2024-02-23T12:48:18;8.40;99.90
12893;DHT22;6514;48.606;9.222;2024-02-23T12:50:45;8.60;99.90
12893;DHT22;6514;48.606;9.222;2024-02-23T12:53:30;8.70;99.90
12893;DHT22;6514;48.606;9.222;2024-02-23T12:55:58;8.70;99.90
12893;DHT22;6514;48.606;9.222;2024-02-23T12:58:26;8.70;99.90
12893;DHT22;6514;48.606;9.222;2024-02-23T13:00:53;8.70;99.90
12893;DHT22;6514;48.606;9.222;2024-02-23T13:03:20;8.80;99.90
12893;DHT22;6514;48.606;9.222;2024-02-23T13:05:47;9.00;99.90
12893;DHT22;6514;48.606;9.222;2024-02-23T13:08:14;9.20;99.90
12893;DHT22;6514;48.606;9.222;2024-02-23T13:10:41;9.30;99.90
12893;DHT22;6514;48.606;9.222;2024-02-23T13:13:07;9.40;99.90
12893;DHT22;6514;48.606;9.222;2024-02-23T13:15:36;9.50;99.90
12893;DHT22;6514;48.606;9.222;2024-02-23T13:18:03;9.40;99.90
12893;DHT22;6514;48.606;9.222;2024-02-23T13:20:31;9.40;99.90
12893;DHT22;6514;48.606;9.222;2024-02-23T13:22:57;9.20;99.90
12893;DHT22;6514;48.606;9.222;2024-02-23T13:25:24;9.20;99.90
12893;DHT22;6514;48.606;9.222;2024-02-23T13:27:51;9.10;99.90
12893;DHT22;6514;48.606;9.222;2024-02-23T13:30:18;9.10;99.90
12893;DHT22;6514;48.606;9.222;2024-02-23T13:32:46;9.20;99.90
12893;DHT22;6514;48.606;9.222;2024-02-23T13:35:13;9.20;99.90
12893;DHT22;6514;48.606;9.222;2024-02-23T13:37:40;9.10;99.90
12893;DHT22;6514;48.606;9.222;2024-02-23T13:40:08;9.10;99.90
12893;DHT22;6514;48.606;9.222;2024-02-23T13:42:36;9.10;99.90
12893;DHT22;6514;48.606;9.222;2024-02-23T13:45:04;9.10;99.90
12893;DHT22;6514;48.606;9.222;2024-02-23T13:47:32;9.10;99.90
12893;DHT22;6514;48.606;9.222;2024-02-23T13:50:00;9.10;99.90
12893;DHT22;6514;48.606;9.222;2024-02-23T13:52:27;9.10;99.90
12893;DHT22;6514;48.606;9.222;2024-02-23T13:54:56;9.20;99.90
12893;DHT22;6514;48.606;9.222;2024-02-23T13:57:23;9.40;99.90
12893;DHT22;6514;48.606;9.222;2024-02-23T13:59:49;9.40;99.90
12893;DHT22;6514;48.606;9.222;2024-02-23T14:02:16;9.40;99.90
12893;DHT22;6514;48.606;9.222;2024-02-23T14:04:44;9.40;99.90
12893;DHT22;6514;48.606;9.222;2024-02-23T14:07:14;9.50;99.90
12893;DHT22;6514;48.606;9.222;2024-02-23T14:09:41;9.30;99.90
12893;DHT22;6514;48.606;9.222;2024-02-23T14:12:08;9.30;99.90
12893;DHT22;6514;48.606;9.222;2024-02-23T14:14:35;9.30;99.90
12893;DHT22;6514;48.606;9.222;2024-02-23T14:17:02;9.40;99.90
12893;DHT22;6514;48.606;9.222;2024-02-23T14:19:29;9.60;99.90
12893;DHT22;6514;48.606;9.222;2024-02-23T14:21:56;9.70;99.90
12893;DHT22;6514;48.606;9.222;2024-02-23T14:24:24;9.70;99.90
12893;DHT22;6514;48.606;9.222;2024-02-23T14:26:51;9.60;99.90
12893;DHT22;6514;48.606;9.222;2024-02-23T14:29:18;9.50;99.90
12893;DHT22;6514;48.606;9.222;2024-02-23T14:31:45;9.50;99.90
12893;DHT22;6514;48.606;9.222;2024-02-23T14:34:12;9.40;99.90
12893;DHT22;6514;48.606;9.222;2024-02-23T14:36:39;9.20;99.90
12893;DHT22;6514;48.606;9.222;2024-02-23T14:39:06;9.10;99.90
12893;DHT22;6514;48.606;9.222;2024-02-23T14:41:34;9.10;99.90
12893;DHT22;6514;48.606;9.222;2024-02-23T14:44:01;9.10;99.90
12893;DHT22;6514;48.606;9.222;2024-02-23T14:46:28;9.00;99.90
12893;DHT22;6514;48.606;9.222;2024-02-23T14:48:55;9.10;99.90
12893;DHT22;6514;48.606;9.222;2024-02-23T14:51:22;9.10;99.90
12893;DHT22;6514;48.606;9.222;2024-02-23T14:53:49;9.10;99.90
12893;DHT22;6514;48.606;9.222;2024-02-23T14:56:16;9.20;99.90
12893;DHT22;6514;48.606;9.222;2024-02-23T14:58:44;9.20;99.90
12893;DHT22;6514;48.606;9.222;2024-02-23T15:01:12;9.10;99.90
12893;DHT22;6514;48.606;9.222;2024-02-23T15:03:39;9.10;99.90
12893;DHT22;6514;48.606;9.222;2024-02-23T15:06:07;9.30;99.90
12893;DHT22;6514;48.606;9.222;2024-02-23T15:08:36;9.30;99.90
12893;DHT22;6514;48.606;9.222;2024-02-23T15:11:03;9.50;99.90
12893;DHT22;6514;48.606;9.222;2024-02-23T15:13:30;9.40;99.90
12893;DHT22;6514;48.606;9.222;2024-02-23T15:15:59;9.40;99.90
12893;DHT22;6514;48.606;9.222;2024-02-23T15:18:26;9.30;99.90
12893;DHT22;6514;48.606;9.222;2024-02-23T15:20:53;9.20;99.90
12893;DHT22;6514;48.606;9.222;2024-02-23T15:23:20;9.10;99.90
12893;DHT22;6514;48.606;9.222;2024-02-23T15:25:49;9.10;99.90
12893;DHT22;6514;48.606;9.222;2024-02-23T15:28:16;9.00;99.90
12893;DHT22;6514;48.606;9.222;2024-02-23T15:30:48;8.80;99.90
12893;DHT22;6514;48.606;9.222;2024-02-23T15:33:16;8.80;99.90
12893;DHT22;6514;48.606;9.222;2024-02-23T15:35:43;8.70;99.90
12893;DHT22;6514;48.606;9.222;2024-02-23T15:38:10;8.70;99.90
12893;DHT22;6514;48.606;9.222;2024-02-23T15:40:37;8.70;99.90
12893;DHT22;6514;48.606;9.222;2024-02-23T15:43:04;8.60;99.90
12893;DHT22;6514;48.606;9.222;2024-02-23T15:45:31;8.60;99.90
12893;DHT22;6514;48.606;9.222;2024-02-23T15:47:58;8.60;99.90
12893;DHT22;6514;48.606;9.222;2024-02-23T15:50:26;8.50;99.90
12893;DHT22;6514;48.606;9.222;2024-02-23T15:52:53;8.50;99.90
12893;DHT22;6514;48.606;9.222;2024-02-23T15:55:20;8.50;99.90
12893;DHT22;6514;48.606;9.222;2024-02-23T15:57:47;8.40;99.90
12893;DHT22;6514;48.606;9.222;2024-02-23T16:00:14;8.40;99.90
12893;DHT22;6514;48.606;9.222;2024-02-23T16:02:41;8.40;99.90